createdAt,value
2023-02-17T00:02:23.517Z,-6.17
2023-02-17T00:04:50.532Z,-6.24
2023-02-17T00:07:17.616Z,-6.26
2023-02-17T00:09:44.536Z,-6.28
2023-02-17T00:12:11.593Z,-6.24
2023-02-17T00:14:41.664Z,-6.27
2023-02-17T00:17:08.678Z,-6.25
2023-02-17T00:19:35.770Z,-6.31
2023-02-17T00:22:02.945Z,-6.39
2023-02-17T00:24:31.407Z,-6.38
2023-02-17T00:26:58.388Z,-6.43
2023-02-17T00:29:26.342Z,-6.50
2023-02-17T00:31:54.535Z,-6.55
2023-02-17T00:34:23.537Z,-6.55
2023-02-17T00:36:50.777Z,-6.54
2023-02-17T00:39:18.274Z,-6.46
2023-02-17T00:41:48.980Z,-6.39
2023-02-17T00:44:20.340Z,-6.46
2023-02-17T00:46:47.624Z,-6.49
2023-02-17T00:49:16.249Z,-6.44
2023-02-17T00:51:43.718Z,-6.49
2023-02-17T00:54:10.896Z,-6.44
2023-02-17T00:56:37.850Z,-6.42
2023-02-17T00:59:04.888Z,-6.38
2023-02-17T01:01:32.533Z,-6.38
2023-02-17T01:03:59.883Z,-6.33
2023-02-17T01:06:34.612Z,-6.39
2023-02-17T01:09:01.735Z,-6.48
2023-02-17T01:11:30.245Z,-6.47
2023-02-17T01:13:58.784Z,-6.43
2023-02-17T01:16:28.119Z,-6.43
2023-02-17T01:18:55.253Z,-6.37
2023-02-17T01:21:26.548Z,-6.31
2023-02-17T01:23:54.490Z,-6.28
2023-02-17T01:26:23.335Z,-6.24
2023-02-17T01:28:50.963Z,-6.21
2023-02-17T01:31:18.702Z,-6.17
2023-02-17T01:33:45.910Z,-6.17
2023-02-17T01:36:15.951Z,-6.21
2023-02-17T01:38:42.909Z,-6.30
2023-02-17T01:41:10.362Z,-6.24
2023-02-17T01:43:37.419Z,-6.27
2023-02-17T01:46:06.372Z,-6.27
2023-02-17T01:48:44.907Z,-6.24
2023-02-17T01:51:23.982Z,-6.24
2023-02-17T01:53:59.166Z,-6.30
2023-02-17T01:56:26.726Z,-6.24
2023-02-17T01:58:56.255Z,-6.17
2023-02-17T02:01:23.584Z,-6.23
2023-02-17T02:03:52.177Z,-6.24
2023-02-17T02:06:21.182Z,-6.34
2023-02-17T02:09:02.331Z,-6.36
2023-02-17T02:11:29.683Z,-6.37
2023-02-17T02:13:57.231Z,-6.40
2023-02-17T02:16:24.928Z,-6.38
2023-02-17T02:18:54.995Z,-6.27
2023-02-17T02:21:41.121Z,-6.21
2023-02-17T02:24:23.320Z,-6.20
2023-02-17T02:27:07.515Z,-6.32
2023-02-17T02:30:13.121Z,-6.29
2023-02-17T02:32:40.107Z,-6.31
2023-02-17T02:35:23.202Z,-6.32
2023-02-17T02:38:02.438Z,-6.34
2023-02-17T02:40:33.176Z,-6.34
2023-02-17T02:43:01.872Z,-6.28
2023-02-17T02:45:29.396Z,-6.34
2023-02-17T02:47:57.781Z,-6.38
2023-02-17T02:50:33.559Z,-6.44
2023-02-17T02:53:12.931Z,-6.48
2023-02-17T02:55:46.077Z,-6.57
2023-02-17T02:58:13.193Z,-6.62
2023-02-17T03:00:54.320Z,-6.65
2023-02-17T03:03:29.901Z,-6.64
2023-02-17T03:06:03.573Z,-6.66
2023-02-17T03:08:36.594Z,-6.62
2023-02-17T03:11:04.316Z,-6.64
2023-02-17T03:13:39.695Z,-6.69
2023-02-17T03:16:09.560Z,-6.69
2023-02-17T03:18:36.730Z,-6.73
2023-02-17T03:21:11.926Z,-6.74
2023-02-17T03:23:39.091Z,-6.78
2023-02-17T03:26:07.035Z,-6.84
2023-02-17T03:28:34.224Z,-6.90
2023-02-17T03:31:01.412Z,-6.96
2023-02-17T03:33:28.854Z,-6.96
2023-02-17T03:35:56.701Z,-6.97
2023-02-17T03:38:23.910Z,-6.96
2023-02-17T03:40:50.926Z,-6.98
2023-02-17T03:43:18.213Z,-6.99
2023-02-17T03:45:45.194Z,-6.95
2023-02-17T03:48:12.527Z,-6.91
2023-02-17T03:50:39.597Z,-6.92
2023-02-17T03:53:06.667Z,-6.93
2023-02-17T03:55:33.641Z,-6.98
2023-02-17T03:58:00.969Z,-7.00
2023-02-17T04:00:28.049Z,-7.00
2023-02-17T04:02:57.213Z,-7.01
2023-02-17T04:05:24.501Z,-7.03
2023-02-17T04:07:52.412Z,-7.07
2023-02-17T04:10:19.677Z,-7.07
2023-02-17T04:12:46.676Z,-7.05
2023-02-17T04:15:13.678Z,-7.08
2023-02-17T04:17:40.824Z,-7.08
2023-02-17T04:20:08.419Z,-7.12
2023-02-17T04:22:35.322Z,-7.11
2023-02-17T04:25:02.224Z,-7.12
2023-02-17T04:27:30.396Z,-7.13
2023-02-17T04:29:57.604Z,-7.12
2023-02-17T04:32:24.707Z,-7.14
2023-02-17T04:34:51.678Z,-7.11
2023-02-17T04:37:18.647Z,-7.09
2023-02-17T04:39:45.944Z,-7.09
2023-02-17T04:42:13.053Z,-7.08
2023-02-17T04:44:40.107Z,-7.08
2023-02-17T04:47:07.138Z,-7.07
2023-02-17T04:49:34.732Z,-7.02
2023-02-17T04:52:01.932Z,-6.97
2023-02-17T04:54:29.375Z,-6.92
2023-02-17T04:56:56.510Z,-6.86
2023-02-17T04:59:25.552Z,-6.83
2023-02-17T05:01:52.651Z,-6.85
2023-02-17T05:04:19.604Z,-6.98
2023-02-17T05:06:47.341Z,-7.02
2023-02-17T05:09:14.474Z,-7.10
2023-02-17T05:11:41.852Z,-7.17
2023-02-17T05:14:09.233Z,-7.18
2023-02-17T05:16:36.364Z,-7.25
2023-02-17T05:19:13.898Z,-7.20
2023-02-17T05:21:41.369Z,-7.10
2023-02-17T05:24:08.579Z,-7.05
2023-02-17T05:26:35.938Z,-6.97
2023-02-17T05:29:02.947Z,-6.93
2023-02-17T05:34:10.922Z,-6.84
2023-02-17T05:36:37.962Z,-6.79
2023-02-17T05:39:04.984Z,-6.64
2023-02-17T05:44:15.219Z,-6.57
2023-02-17T05:46:42.297Z,-6.61
2023-02-17T05:49:09.492Z,-6.52
2023-02-17T05:51:36.877Z,-6.52
2023-02-17T05:54:03.863Z,-6.50
2023-02-17T05:56:30.887Z,-6.43
2023-02-17T05:58:58.074Z,-6.37
2023-02-17T06:01:26.724Z,-6.47
2023-02-17T06:03:53.887Z,-6.38
2023-02-17T06:06:22.154Z,-6.33
2023-02-17T06:08:49.185Z,-6.36
2023-02-17T06:11:16.629Z,-6.29
2023-02-17T06:13:43.664Z,-6.19
2023-02-17T06:16:11.024Z,-6.11
2023-02-17T06:18:38.172Z,-6.09
2023-02-17T06:21:06.649Z,-6.09
2023-02-17T06:23:33.682Z,-6.02
2023-02-17T06:26:00.699Z,-5.99
2023-02-17T06:28:27.776Z,-5.91
2023-02-17T06:30:54.880Z,-5.90
2023-02-17T06:33:21.902Z,-5.90
2023-02-17T06:35:52.445Z,-5.82
2023-02-17T06:38:19.851Z,-5.80
2023-02-17T06:40:47.228Z,-5.75
2023-02-17T06:43:14.330Z,-5.70
2023-02-17T06:45:41.428Z,-5.64
2023-02-17T06:48:08.688Z,-5.58
2023-02-17T06:50:36.072Z,-5.49
2023-02-17T06:53:03.179Z,-5.44
2023-02-17T06:55:31.154Z,-5.45
2023-02-17T06:58:17.746Z,-5.69
2023-02-17T07:00:44.669Z,-5.59
2023-02-17T07:03:11.843Z,-5.61
2023-02-17T07:05:40.422Z,-5.57
2023-02-17T07:08:07.494Z,-5.58
2023-02-17T07:10:34.620Z,-5.55
2023-02-17T07:13:06.793Z,-5.57
2023-02-17T07:15:33.710Z,-5.60
2023-02-17T07:18:01.751Z,-5.54
2023-02-17T07:20:28.734Z,-5.30
2023-02-17T07:22:55.826Z,-5.22
2023-02-17T07:25:22.979Z,-5.09
2023-02-17T07:27:50.212Z,-4.97
2023-02-17T07:30:17.843Z,-4.85
2023-02-17T07:32:44.932Z,-4.68
2023-02-17T07:35:12.138Z,-4.69
2023-02-17T07:37:39.677Z,-4.71
2023-02-17T07:40:09.970Z,-4.57
2023-02-17T07:42:40.263Z,-4.56
2023-02-17T07:45:07.418Z,-4.62
2023-02-17T07:47:34.644Z,-4.71
2023-02-17T07:50:01.618Z,-4.61
2023-02-17T07:52:32.666Z,-4.63
2023-02-17T07:55:00.009Z,-4.58
2023-02-17T07:57:27.348Z,-4.50
2023-02-17T07:59:54.765Z,-4.33
2023-02-17T08:02:22.138Z,-4.24
2023-02-17T08:04:49.619Z,-4.17
2023-02-17T08:07:22.313Z,-4.21
2023-02-17T08:10:10.835Z,-4.16
2023-02-17T08:12:56.934Z,-4.06
2023-02-17T08:15:26.291Z,-4.02
2023-02-17T08:17:54.454Z,-4.03
2023-02-17T08:23:05.266Z,-4.16
2023-02-17T08:25:37.546Z,-4.27
2023-02-17T08:28:10.024Z,-4.20
2023-02-17T08:30:43.750Z,-4.17
2023-02-17T08:33:11.573Z,-4.10
2023-02-17T08:35:38.581Z,-4.04
2023-02-17T08:38:08.967Z,-3.93
2023-02-17T08:40:36.243Z,-3.93
2023-02-17T08:43:03.865Z,-4.00
2023-02-17T08:45:32.922Z,-3.94
2023-02-17T08:48:00.705Z,-3.85
2023-02-17T08:50:28.212Z,-4.09
2023-02-17T08:52:56.916Z,-4.26
2023-02-17T08:58:05.874Z,-4.02
2023-02-17T09:00:33.708Z,-3.91
2023-02-17T09:03:01.935Z,-3.85
2023-02-17T09:05:29.330Z,-3.92
2023-02-17T09:07:56.532Z,-3.83
2023-02-17T09:13:07.207Z,-3.88
2023-02-17T09:15:34.907Z,-3.82
2023-02-17T09:18:04.870Z,-3.86
2023-02-17T09:20:32.023Z,-4.01
2023-02-17T09:22:59.665Z,-4.13
2023-02-17T09:25:27.207Z,-4.09
2023-02-17T09:27:59.521Z,-3.93
2023-02-17T09:30:27.068Z,-3.89
2023-02-17T09:35:38.306Z,-3.93
2023-02-17T09:38:11.816Z,-3.84
2023-02-17T09:40:43.905Z,-3.85
2023-02-17T09:46:07.606Z,-3.68
2023-02-17T09:48:35.625Z,-3.56
2023-02-17T09:51:10.966Z,-3.53
2023-02-17T09:53:49.093Z,-3.47
2023-02-17T09:56:23.575Z,-3.42
2023-02-17T09:58:54.860Z,-3.41
2023-02-17T10:01:24.502Z,-3.35
2023-02-17T10:03:52.202Z,-3.36
2023-02-17T10:06:25.058Z,-3.42
2023-02-17T10:09:10.676Z,-3.37
2023-02-17T10:11:39.124Z,-3.45
2023-02-17T10:14:22.418Z,-3.49
2023-02-17T10:16:52.548Z,-3.60
2023-02-17T10:22:11.686Z,-3.52
2023-02-17T10:24:39.496Z,-3.56
2023-02-17T10:27:12.177Z,-3.56
2023-02-17T10:29:43.366Z,-3.59
2023-02-17T10:32:32.661Z,-3.50
2023-02-17T10:35:06.388Z,-3.56
2023-02-17T10:40:19.854Z,-3.49
2023-02-17T10:42:48.406Z,-3.46
2023-02-17T10:48:36.183Z,-3.49
2023-02-17T10:53:48.055Z,-3.50
2023-02-17T10:56:17.844Z,-3.48
2023-02-17T10:59:01.023Z,-3.45
2023-02-17T11:01:28.601Z,-3.45
2023-02-17T11:06:50.113Z,-3.44
2023-02-17T11:09:42.810Z,-3.42
2023-02-17T11:12:15.065Z,-3.43
2023-02-17T11:14:46.620Z,-3.41
2023-02-17T11:17:33.872Z,-3.56
2023-02-17T11:20:05.073Z,-3.69
2023-02-17T11:22:33.066Z,-3.71
2023-02-17T11:25:01.053Z,-3.70
2023-02-17T11:27:28.186Z,-3.78
2023-02-17T11:30:05.882Z,-3.83
2023-02-17T11:32:35.776Z,-3.80
2023-02-17T11:35:16.648Z,-3.80
2023-02-17T11:37:45.296Z,-3.90
2023-02-17T11:40:32.567Z,-3.95
2023-02-17T11:43:03.507Z,-3.78
2023-02-17T11:45:41.871Z,-3.78
2023-02-17T11:48:28.228Z,-3.82
2023-02-17T11:51:23.997Z,-3.77
2023-02-17T11:53:58.543Z,-3.84
2023-02-17T11:56:30.148Z,-3.85
2023-02-17T11:59:15.756Z,-3.82
2023-02-17T12:02:21.889Z,-3.88
2023-02-17T12:04:53.591Z,-3.99
2023-02-17T12:07:39.844Z,-3.98
2023-02-17T12:10:38.949Z,-3.89
2023-02-17T12:13:06.350Z,-3.91
2023-02-17T12:15:59.443Z,-4.01
2023-02-17T12:18:35.625Z,-3.91
2023-02-17T12:21:05.765Z,-3.90
2023-02-17T12:23:38.945Z,-3.80
2023-02-17T12:26:24.553Z,-3.76
2023-02-17T12:29:02.219Z,-3.60
2023-02-17T12:31:49.881Z,-3.51
2023-02-17T12:34:30.551Z,-3.53
2023-02-17T12:37:00.107Z,-3.58
2023-02-17T12:39:46.570Z,-3.64
2023-02-17T12:42:38.925Z,-3.68
2023-02-17T12:45:21.332Z,-3.65
2023-02-17T12:47:54.948Z,-3.69
2023-02-17T12:50:27.405Z,-3.70
2023-02-17T12:52:57.909Z,-3.74
2023-02-17T12:55:32.779Z,-3.83
2023-02-17T12:58:07.890Z,-3.82
2023-02-17T13:00:37.711Z,-3.82
2023-02-17T13:03:06.905Z,-3.77
2023-02-17T13:05:36.988Z,-3.87
2023-02-17T13:08:10.457Z,-3.80
2023-02-17T13:10:39.391Z,-3.79
2023-02-17T13:13:12.724Z,-3.81
2023-02-17T13:15:39.730Z,-3.89
2023-02-17T13:18:11.663Z,-3.91
2023-02-17T13:20:54.214Z,-3.88
2023-02-17T13:23:39.570Z,-3.85
2023-02-17T13:26:21.294Z,-3.78
2023-02-17T13:28:49.356Z,-3.77
2023-02-17T13:33:59.573Z,-3.85
2023-02-17T13:36:29.800Z,-3.91
2023-02-17T13:39:00.637Z,-3.99
2023-02-17T13:41:56.066Z,-3.95
2023-02-17T13:44:28.516Z,-3.95
2023-02-17T13:46:58.810Z,-3.99
2023-02-17T13:49:28.564Z,-4.03
2023-02-17T13:52:07.214Z,-4.00
2023-02-17T13:54:34.567Z,-4.11
2023-02-17T13:59:42.802Z,-4.09
2023-02-17T14:02:30.440Z,-4.07
2023-02-17T14:05:06.898Z,-4.06
2023-02-17T14:07:36.614Z,-4.05
2023-02-17T14:10:03.976Z,-4.06
2023-02-17T14:12:31.352Z,-4.14
2023-02-17T14:14:59.277Z,-4.15
2023-02-17T14:17:38.271Z,-4.18
2023-02-17T14:20:07.463Z,-4.22
2023-02-17T14:22:37.510Z,-4.25
2023-02-17T14:25:05.292Z,-4.32
2023-02-17T14:27:43.365Z,-4.36
2023-02-17T14:30:15.294Z,-4.39
2023-02-17T14:32:42.860Z,-4.43
2023-02-17T14:35:30.735Z,-4.42
2023-02-17T14:38:07.673Z,-4.45
2023-02-17T14:43:22.513Z,-4.47
2023-02-17T14:45:49.900Z,-4.51
2023-02-17T14:48:16.934Z,-4.51
2023-02-17T14:50:45.524Z,-4.53
2023-02-17T14:53:27.602Z,-4.49
2023-02-17T14:56:09.015Z,-4.44
2023-02-17T14:58:36.288Z,-4.45
2023-02-17T15:01:04.080Z,-4.48
2023-02-17T15:03:31.207Z,-4.53
2023-02-17T15:06:00.681Z,-4.56
2023-02-17T15:08:35.408Z,-4.60
2023-02-17T15:11:03.342Z,-4.65
2023-02-17T15:13:32.069Z,-4.62
2023-02-17T15:16:00.282Z,-4.67
2023-02-17T15:18:28.273Z,-4.71
2023-02-17T15:23:36.934Z,-4.82
2023-02-17T15:29:22.105Z,-4.92
2023-02-17T15:34:34.338Z,-4.95
2023-02-17T15:37:02.193Z,-4.93
2023-02-17T15:39:31.381Z,-4.97
2023-02-17T15:42:00.898Z,-5.00
2023-02-17T15:47:18.276Z,-5.10
2023-02-17T15:49:45.884Z,-5.14
2023-02-17T15:52:13.690Z,-5.13
2023-02-17T15:54:41.625Z,-5.15
2023-02-17T16:02:37.159Z,-5.21
2023-02-17T16:05:04.640Z,-5.24
2023-02-17T16:07:31.713Z,-5.28
2023-02-17T16:12:41.952Z,-5.28
2023-02-17T16:18:05.060Z,-5.32
2023-02-17T16:23:16.064Z,-5.30
2023-02-17T16:25:45.005Z,-5.27
2023-02-17T16:28:22.201Z,-5.22
2023-02-17T16:30:50.556Z,-5.23
2023-02-17T16:33:20.546Z,-5.20
2023-02-17T16:35:53.484Z,-5.21
2023-02-17T16:41:14.415Z,-5.22
2023-02-17T16:46:31.327Z,-5.22
2023-02-17T16:48:59.888Z,-5.25
2023-02-17T16:51:29.796Z,-5.27
2023-02-17T16:53:57.834Z,-5.30
2023-02-17T16:59:16.592Z,-5.36
2023-02-17T17:01:52.051Z,-5.35
2023-02-17T17:07:04.205Z,-5.38
2023-02-17T17:24:03.220Z,-5.35
2023-02-17T17:38:26.769Z,-5.52
2023-02-17T17:46:31.130Z,-5.56
2023-02-17T17:49:01.856Z,-5.59
2023-02-17T17:59:51.716Z,-5.85
2023-02-17T18:02:23.165Z,-5.89
2023-02-17T18:53:21.653Z,-6.48
2023-02-17T19:01:28.047Z,-6.67
2023-02-17T19:06:40.052Z,-6.70
2023-02-17T19:48:48.284Z,-7.22
2023-02-17T19:51:15.909Z,-7.28
2023-02-17T19:53:44.076Z,-7.35
2023-02-17T19:56:16.545Z,-7.32
2023-02-17T20:06:58.763Z,-7.48
2023-02-17T20:09:26.300Z,-7.51
2023-02-17T20:11:53.717Z,-7.48
2023-02-17T20:14:21.592Z,-7.52
2023-02-17T20:19:46.484Z,-7.66
2023-02-17T20:22:13.773Z,-7.68
2023-02-17T20:24:43.256Z,-7.77
2023-02-17T20:27:11.188Z,-7.77
2023-02-17T20:29:38.241Z,-7.79
2023-02-17T20:32:07.052Z,-7.82
2023-02-17T20:34:38.666Z,-7.81
2023-02-17T20:37:07.009Z,-7.86
2023-02-17T20:39:36.201Z,-7.89
2023-02-17T20:42:03.964Z,-7.87
2023-02-17T20:44:31.272Z,-7.86
2023-02-17T20:46:58.804Z,-8.02
2023-02-17T20:49:27.203Z,-7.99
2023-02-17T20:51:54.273Z,-8.03
2023-02-17T20:54:21.268Z,-8.03
2023-02-17T20:56:51.073Z,-8.05
2023-02-17T20:59:18.120Z,-8.09
2023-02-17T21:01:45.948Z,-8.14
2023-02-17T21:04:14.328Z,-8.17
2023-02-17T21:06:43.178Z,-8.26
2023-02-17T21:09:15.576Z,-8.28
2023-02-17T21:11:43.110Z,-8.31
2023-02-17T21:14:10.619Z,-8.30
2023-02-17T21:16:37.956Z,-8.35
2023-02-17T21:19:05.561Z,-8.38
2023-02-17T21:21:32.679Z,-8.42
2023-02-17T21:24:00.044Z,-8.44
2023-02-17T21:26:27.748Z,-8.43
2023-02-17T21:28:55.306Z,-8.43
2023-02-17T21:31:22.699Z,-8.53
2023-02-17T21:33:49.915Z,-8.62
2023-02-17T21:36:18.482Z,-8.68
2023-02-17T21:38:46.645Z,-8.69
2023-02-17T21:41:15.194Z,-8.68
2023-02-17T21:44:00.828Z,-8.65
2023-02-17T21:46:28.892Z,-8.68
2023-02-17T21:48:57.180Z,-8.74
2023-02-17T21:51:24.792Z,-8.79
2023-02-17T21:53:52.906Z,-8.80
2023-02-17T21:56:20.908Z,-8.81
2023-02-17T21:58:52.503Z,-8.77
2023-02-17T22:01:20.220Z,-8.79
2023-02-17T22:03:47.296Z,-8.83
2023-02-17T22:06:15.314Z,-8.82
2023-02-17T22:08:42.417Z,-8.90
2023-02-17T22:11:16.663Z,-8.92
2023-02-17T22:13:44.023Z,-8.96
2023-02-17T22:16:11.569Z,-9.02
2023-02-17T22:18:38.749Z,-9.01
2023-02-17T22:23:53.822Z,-9.01
2023-02-17T22:26:22.109Z,-9.10
2023-02-17T22:28:49.504Z,-9.18
2023-02-17T22:31:18.013Z,-9.18
2023-02-17T22:33:45.422Z,-9.12
2023-02-17T22:36:17.302Z,-9.14
2023-02-17T22:38:44.978Z,-9.20
2023-02-17T22:41:13.799Z,-9.14
2023-02-17T22:43:42.926Z,-9.09
2023-02-17T22:46:11.045Z,-9.08
2023-02-17T22:48:39.098Z,-9.12
2023-02-17T22:51:07.164Z,-9.11
2023-02-17T22:53:35.140Z,-9.05
2023-02-17T22:56:02.710Z,-9.13
2023-02-17T22:58:30.214Z,-9.13
2023-02-17T23:01:06.550Z,-9.11
2023-02-17T23:03:33.848Z,-9.17
2023-02-17T23:06:01.666Z,-9.21
2023-02-17T23:08:28.978Z,-9.27
2023-02-17T23:10:56.226Z,-9.26
2023-02-17T23:13:23.296Z,-9.34
2023-02-17T23:15:50.356Z,-9.37
2023-02-17T23:18:18.780Z,-9.36
2023-02-17T23:20:47.125Z,-9.40
2023-02-17T23:23:14.246Z,-9.43
2023-02-17T23:25:54.827Z,-9.48
2023-02-17T23:28:23.221Z,-9.44
2023-02-17T23:30:50.570Z,-9.42
2023-02-17T23:33:18.756Z,-9.35
2023-02-17T23:35:46.208Z,-9.33
2023-02-17T23:38:13.994Z,-9.32
2023-02-17T23:40:41.435Z,-9.27
2023-02-17T23:43:08.950Z,-9.21
2023-02-17T23:45:37.776Z,-9.18
2023-02-17T23:48:05.937Z,-9.22
2023-02-17T23:50:33.300Z,-9.17
2023-02-17T23:53:00.242Z,-9.26
2023-02-17T23:55:27.410Z,-9.36
2023-02-17T23:57:54.411Z,-9.32
